Time;durP1;ratioP1;P1;durP2;ratioP2;P2;SDS_P1;SDS_P2;PMS_P1;PMS_P2;Temp;Humidity;BMP_temperature;BMP_pressure;BME280_temperature;BME280_humidity;BME280_pressure;Samples;Min_cycle;Max_cycle;Signal;HPM_P1;HPM_P2
2023/08/25 00:00:14;;;;;;;30.53;6.60;;;29.10;57.70;;;;;;5061918;28;20235;-74
2023/08/25 00:02:41;;;;;;;35.33;6.90;;;29.10;57.70;;;;;;5062996;28;20883;-74
2023/08/25 00:05:09;;;;;;;32.10;6.40;;;29.10;57.70;;;;;;5062079;28;20844;-75
2023/08/25 00:07:37;;;;;;;28.87;6.53;;;29.10;57.70;;;;;;5043166;28;20294;-74
2023/08/25 00:10:05;;;;;;;30.07;6.30;;;29.10;57.70;;;;;;5033060;28;20204;-74
2023/08/25 00:12:32;;;;;;;35.13;6.70;;;29.10;57.70;;;;;;5038622;28;20213;-75
2023/08/25 00:14:59;;;;;;;23.70;5.87;;;29.10;57.70;;;;;;5033469;28;20193;-74
2023/08/25 00:17:26;;;;;;;26.40;6.20;;;29.10;57.70;;;;;;5047284;28;20234;-74
2023/08/25 00:19:53;;;;;;;26.03;5.97;;;29.10;57.80;;;;;;5046389;28;20555;-74
2023/08/25 00:22:21;;;;;;;29.50;6.57;;;29.10;57.70;;;;;;5030216;28;20288;-74
2023/08/25 00:24:52;;;;;;;28.33;5.97;;;29.00;57.70;;;;;;5030289;28;20579;-74
2023/08/25 00:27:19;;;;;;;45.80;7.70;;;29.10;58.30;;;;;;5042766;28;20229;-74
2023/08/25 00:29:46;;;;;;;29.67;6.30;;;29.10;57.70;;;;;;5040389;28;20289;-73
2023/08/25 00:32:13;;;;;;;30.40;6.83;;;29.00;57.70;;;;;;5036641;28;20220;-74
2023/08/25 00:34:40;;;;;;;35.97;7.23;;;29.10;57.80;;;;;;5039626;28;20576;-74
2023/08/25 00:37:07;;;;;;;28.53;6.07;;;29.00;57.70;;;;;;5043294;28;20228;-74
2023/08/25 00:39:34;;;;;;;29.77;6.23;;;29.00;57.70;;;;;;5029413;28;20332;-74
2023/08/25 00:42:02;;;;;;;59.37;8.80;;;29.00;57.70;;;;;;5044493;28;20206;-73
2023/08/25 00:44:29;;;;;;;32.13;7.00;;;29.00;57.70;;;;;;5036926;28;20208;-75
2023/08/25 00:46:57;;;;;;;27.70;6.10;;;29.00;57.70;;;;;;5033617;28;20282;-74
2023/08/25 00:49:24;;;;;;;48.50;7.93;;;29.00;57.70;;;;;;5042409;28;20199;-74
2023/08/25 00:51:52;;;;;;;43.00;7.47;;;29.00;57.70;;;;;;5030231;28;20208;-74
2023/08/25 00:54:20;;;;;;;32.33;6.73;;;29.00;57.70;;;;;;5032039;28;20312;-74
2023/08/25 00:56:49;;;;;;;35.57;7.00;;;29.00;57.70;;;;;;5040016;28;20204;-74
2023/08/25 00:59:18;;;;;;;42.87;7.80;;;29.00;57.70;;;;;;5031440;28;20271;-75
2023/08/25 01:01:46;;;;;;;37.57;7.20;;;29.00;57.80;;;;;;5044314;28;20203;-75
2023/08/25 01:04:13;;;;;;;23.90;6.00;;;29.00;57.80;;;;;;5028706;28;20216;-74
2023/08/25 01:06:41;;;;;;;38.37;7.00;;;29.00;57.80;;;;;;5035272;28;20218;-74
2023/08/25 01:09:08;;;;;;;27.23;6.10;;;28.90;57.70;;;;;;5044412;28;20292;-74
2023/08/25 01:11:41;;;;;;;29.83;5.93;;;29.00;57.80;;;;;;5029169;28;20658;-74
2023/08/25 01:14:16;;;;;;;38.50;7.13;;;29.00;57.90;;;;;;5029634;28;20212;-74
2023/08/25 01:16:52;;;;;;;27.00;6.27;;;28.90;57.80;;;;;;5045876;28;20315;-74
2023/08/25 01:19:44;;;;;;;26.27;5.90;;;29.00;57.90;;;;;;5032998;28;20215;-74
2023/08/25 01:22:15;;;;;;;29.07;6.43;;;29.00;57.90;;;;;;5032110;28;20197;-74
2023/08/25 01:24:44;;;;;;;32.10;6.47;;;29.00;57.90;;;;;;5034811;28;20296;-74
2023/08/25 01:27:13;;;;;;;30.97;6.97;;;29.00;57.90;;;;;;5037615;28;20208;-73
2023/08/25 01:29:43;;;;;;;26.47;6.20;;;29.00;58.50;;;;;;5047976;28;20284;-73
2023/08/25 01:32:10;;;;;;;23.10;5.87;;;28.90;57.90;;;;;;5041328;28;20203;-73
2023/08/25 01:34:37;;;;;;;39.77;7.40;;;28.90;57.90;;;;;;5034414;28;20339;-73
2023/08/25 01:37:12;;;;;;;28.30;6.03;;;28.90;57.90;;;;;;5027996;28;20452;-75
2023/08/25 01:39:42;;;;;;;34.97;6.77;;;28.90;57.90;;;;;;5027640;28;20222;-75
2023/08/25 01:42:10;;;;;;;40.10;7.17;;;28.90;57.90;;;;;;5035367;28;20729;-73
2023/08/25 01:44:43;;;;;;;53.80;8.70;;;28.90;57.90;;;;;;5033226;28;20284;-76
2023/08/25 01:47:11;;;;;;;38.00;7.50;;;28.90;57.90;;;;;;5028281;28;20284;-74
2023/08/25 01:49:39;;;;;;;26.70;6.30;;;28.80;58.50;;;;;;5028161;28;20205;-73
2023/08/25 01:52:07;;;;;;;33.23;6.40;;;28.90;57.90;;;;;;5033037;28;20725;-73
2023/08/25 01:54:34;;;;;;;24.20;5.70;;;28.90;57.90;;;;;;5033236;28;20237;-73
2023/08/25 01:57:01;;;;;;;38.93;7.00;;;28.90;58.00;;;;;;5035632;28;20208;-74
2023/08/25 01:59:28;;;;;;;32.03;6.47;;;28.90;58.00;;;;;;5029211;28;20197;-73
2023/08/25 02:01:56;;;;;;;29.47;6.27;;;28.90;58.00;;;;;;5027717;28;20215;-73
2023/08/25 02:04:23;;;;;;;32.07;6.60;;;28.90;58.00;;;;;;5039114;28;20210;-73
2023/08/25 02:06:51;;;;;;;28.57;6.20;;;28.90;58.00;;;;;;5036808;28;20207;-73
2023/08/25 02:09:18;;;;;;;26.03;6.47;;;28.90;58.00;;;;;;5047101;28;20199;-76
2023/08/25 02:11:45;;;;;;;33.73;6.70;;;28.90;58.00;;;;;;5043676;28;20286;-75
2023/08/25 02:14:12;;;;;;;36.90;7.33;;;28.90;58.00;;;;;;5046490;28;20291;-74
2023/08/25 02:16:39;;;;;;;26.40;6.27;;;28.80;57.90;;;;;;5046342;28;20204;-76
2023/08/25 02:19:07;;;;;;;29.93;6.40;;;28.80;58.50;;;;;;5044213;28;20303;-76
2023/08/25 02:21:34;;;;;;;42.50;7.60;;;28.80;58.00;;;;;;5046208;28;20200;-76
2023/08/25 02:24:01;;;;;;;28.77;6.27;;;28.80;58.00;;;;;;5028402;28;20346;-76
2023/08/25 02:26:27;;;;;;;36.23;7.30;;;28.80;58.60;;;;;;5030865;28;20291;-76
2023/08/25 02:28:54;;;;;;;43.30;7.93;;;28.80;58.00;;;;;;5041260;28;20200;-76
2023/08/25 02:31:21;;;;;;;29.00;6.70;;;28.80;58.00;;;;;;5044802;28;20295;-76
2023/08/25 02:33:48;;;;;;;30.10;6.77;;;28.80;58.00;;;;;;5037359;28;20247;-76
2023/08/25 02:36:17;;;;;;;29.03;6.70;;;28.80;58.00;;;;;;5034443;28;20912;-76
2023/08/25 02:38:43;;;;;;;43.40;7.87;;;28.80;58.00;;;;;;5033997;28;20234;-74
2023/08/25 02:41:10;;;;;;;44.33;8.00;;;28.80;58.00;;;;;;5030892;28;20226;-74
2023/08/25 02:43:37;;;;;;;29.73;6.53;;;28.80;58.10;;;;;;5032395;28;20287;-74
2023/08/25 02:46:04;;;;;;;32.10;6.97;;;28.80;58.10;;;;;;5042917;28;20210;-74
2023/08/25 02:48:31;;;;;;;32.37;6.73;;;28.80;58.10;;;;;;5042163;28;20319;-74
2023/08/25 02:50:58;;;;;;;27.60;6.57;;;28.80;58.10;;;;;;5034684;28;20296;-73
2023/08/25 02:53:26;;;;;;;60.43;9.60;;;28.80;58.10;;;;;;5040974;28;20222;-73
2023/08/25 02:55:53;;;;;;;39.60;7.60;;;28.80;58.10;;;;;;5035742;28;20208;-75
2023/08/25 02:58:20;;;;;;;31.90;6.90;;;28.80;58.10;;;;;;5045284;28;20224;-74
2023/08/25 03:00:47;;;;;;;29.13;6.50;;;28.80;58.80;;;;;;5042594;28;20207;-73
2023/08/25 03:03:14;;;;;;;45.80;8.70;;;28.80;58.70;;;;;;5027280;28;20201;-73
2023/08/25 03:05:41;;;;;;;41.00;7.93;;;28.80;58.10;;;;;;5046221;28;20290;-74
2023/08/25 03:08:12;;;;;;;29.27;6.77;;;28.80;58.10;;;;;;5026357;28;20208;-74
2023/08/25 03:10:44;;;;;;;26.97;6.33;;;28.80;58.10;;;;;;5036739;28;20295;-74
2023/08/25 03:13:11;;;;;;;39.33;7.73;;;28.80;58.20;;;;;;5035132;28;20195;-74
2023/08/25 03:15:38;;;;;;;33.07;6.93;;;28.80;58.10;;;;;;5029803;28;20287;-74
2023/08/25 03:18:05;;;;;;;28.10;6.93;;;28.70;58.10;;;;;;5037623;28;20339;-73
2023/08/25 03:20:32;;;;;;;48.53;8.90;;;28.70;58.10;;;;;;5028560;28;20208;-74
2023/08/25 03:23:00;;;;;;;37.23;7.83;;;28.70;58.10;;;;;;5028981;28;20204;-74
2023/08/25 03:25:27;;;;;;;34.30;7.50;;;28.70;58.20;;;;;;5028283;28;20196;-74
2023/08/25 03:27:55;;;;;;;27.63;6.83;;;28.70;58.70;;;;;;5033513;28;20319;-73
2023/08/25 03:30:22;;;;;;;67.10;10.80;;;28.70;58.20;;;;;;5042470;28;20521;-74
2023/08/25 03:32:49;;;;;;;30.40;7.47;;;28.70;58.20;;;;;;5039685;28;20295;-74
2023/08/25 03:35:16;;;;;;;23.27;6.73;;;28.70;58.20;;;;;;5041354;28;20198;-74
2023/08/25 03:37:43;;;;;;;26.97;6.90;;;28.70;58.20;;;;;;5031714;28;20211;-74
2023/08/25 03:40:11;;;;;;;57.80;9.53;;;28.70;58.20;;;;;;5027219;28;20320;-74
2023/08/25 03:42:38;;;;;;;53.20;9.50;;;28.70;58.20;;;;;;5026630;28;20201;-74
2023/08/25 03:45:07;;;;;;;37.73;7.50;;;28.70;58.20;;;;;;5031770;28;20200;-74
2023/08/25 03:47:34;;;;;;;35.80;7.63;;;28.70;58.20;;;;;;5035489;28;20210;-74
2023/08/25 03:50:01;;;;;;;37.10;7.60;;;28.70;58.20;;;;;;5038218;28;20196;-74
2023/08/25 03:52:28;;;;;;;33.67;7.50;;;28.70;58.20;;;;;;5034378;28;20211;-74
2023/08/25 03:54:55;;;;;;;41.53;8.33;;;28.70;58.20;;;;;;5043594;28;20307;-74
2023/08/25 03:57:21;;;;;;;34.47;7.30;;;28.70;58.20;;;;;;5041482;28;20299;-75
2023/08/25 03:59:48;;;;;;;36.23;8.07;;;28.70;58.30;;;;;;5047923;28;20232;-75
2023/08/25 04:02:17;;;;;;;29.33;7.73;;;28.60;58.20;;;;;;5046806;28;20204;-75
2023/08/25 04:04:44;;;;;;;34.80;7.73;;;28.70;58.20;;;;;;5029644;28;20669;-74
2023/08/25 04:07:12;;;;;;;31.00;7.57;;;28.70;58.20;;;;;;5030380;28;20200;-74
2023/08/25 04:09:40;;;;;;;35.73;7.97;;;28.70;58.20;;;;;;5029805;28;20742;-75
2023/08/25 04:12:07;;;;;;;33.37;8.10;;;28.70;58.20;;;;;;5041086;28;20211;-75
2023/08/25 04:14:34;;;;;;;36.97;7.93;;;28.70;58.20;;;;;;5047670;28;20287;-76
2023/08/25 04:17:01;;;;;;;29.10;7.43;;;28.70;58.30;;;;;;5038676;28;20619;-75
2023/08/25 04:19:30;;;;;;;48.23;8.83;;;28.70;58.30;;;;;;5047071;28;20902;-75
2023/08/25 04:21:56;;;;;;;40.60;8.53;;;28.70;58.30;;;;;;5047787;28;20200;-74
2023/08/25 04:24:23;;;;;;;44.17;8.77;;;28.70;58.30;;;;;;5029469;28;20310;-74
2023/08/25 04:26:51;;;;;;;31.87;7.67;;;28.70;58.30;;;;;;5034278;28;20279;-74
2023/08/25 04:29:18;;;;;;;31.77;7.63;;;28.70;58.30;;;;;;5049167;28;20675;-74
2023/08/25 04:31:44;;;;;;;31.43;7.97;;;28.70;58.40;;;;;;5039298;28;20284;-74
2023/08/25 04:34:11;;;;;;;37.10;8.00;;;28.70;58.30;;;;;;5033911;28;20200;-74
2023/08/25 04:36:40;;;;;;;34.87;7.20;;;28.70;58.40;;;;;;5046208;28;20275;-74
2023/08/25 04:39:07;;;;;;;30.07;7.57;;;28.70;58.40;;;;;;5028914;28;20240;-76
2023/08/25 04:41:34;;;;;;;23.43;6.87;;;28.60;58.30;;;;;;5033832;28;20668;-74
2023/08/25 04:44:01;;;;;;;39.43;8.27;;;28.70;58.30;;;;;;5042501;28;20215;-74
2023/08/25 04:46:29;;;;;;;44.70;8.60;;;28.70;58.40;;;;;;5032002;28;20205;-76
2023/08/25 04:48:56;;;;;;;33.93;7.73;;;28.70;58.40;;;;;;5045565;28;20277;-76
2023/08/25 04:51:23;;;;;;;39.17;8.40;;;28.70;58.40;;;;;;5049124;28;20294;-75
2023/08/25 04:53:51;;;;;;;35.40;7.80;;;28.60;58.30;;;;;;5035041;28;20197;-75
2023/08/25 04:56:18;;;;;;;25.53;6.80;;;28.70;58.40;;;;;;5037163;28;20192;-75
2023/08/25 04:58:45;;;;;;;39.30;8.07;;;28.70;58.40;;;;;;5046453;28;20327;-78
2023/08/25 05:01:13;;;;;;;54.87;9.63;;;28.70;58.40;;;;;;5032066;28;20201;-76
2023/08/25 05:03:42;;;;;;;29.97;7.57;;;28.70;58.40;;;;;;5033983;28;20200;-74
2023/08/25 05:06:09;;;;;;;26.77;6.83;;;28.60;58.30;;;;;;5041464;28;20212;-75
2023/08/25 05:08:36;;;;;;;33.40;7.47;;;28.70;58.40;;;;;;5034611;28;20218;-75
2023/08/25 05:11:04;;;;;;;32.67;7.77;;;28.60;58.30;;;;;;5028848;28;20212;-75
2023/08/25 05:13:31;;;;;;;29.07;6.80;;;28.70;58.40;;;;;;5028835;28;20751;-78
2023/08/25 05:15:58;;;;;;;35.20;7.50;;;28.70;58.40;;;;;;5033273;28;20203;-77
2023/08/25 05:18:25;;;;;;;32.40;7.30;;;28.70;58.40;;;;;;5048043;28;20308;-76
2023/08/25 05:20:59;;;;;;;31.37;7.13;;;28.60;58.30;;;;;;5044709;28;20233;-77
2023/08/25 05:23:26;;;;;;;51.57;9.20;;;28.70;58.40;;;;;;5029233;28;20962;-77
2023/08/25 05:25:53;;;;;;;29.33;6.67;;;28.60;58.30;;;;;;5028293;28;20237;-74
2023/08/25 05:28:21;;;;;;;44.30;8.33;;;28.60;58.30;;;;;;5045761;28;20214;-77
2023/08/25 05:30:49;;;;;;;31.73;7.13;;;28.70;58.40;;;;;;5032363;28;20200;-76
2023/08/25 05:33:16;;;;;;;35.53;7.43;;;28.60;58.30;;;;;;5027747;28;20201;-75
2023/08/25 05:35:43;;;;;;;22.63;6.73;;;28.60;58.30;;;;;;5039275;28;20291;-75
2023/08/25 05:38:10;;;;;;;30.33;6.70;;;28.60;58.30;;;;;;5041303;28;20193;-75
2023/08/25 05:40:37;;;;;;;35.57;7.60;;;28.60;58.30;;;;;;5036017;28;20311;-75
2023/08/25 05:43:04;;;;;;;31.27;7.50;;;28.60;58.30;;;;;;5028404;28;20289;-77
2023/08/25 05:45:33;;;;;;;46.70;8.47;;;28.60;58.40;;;;;;5030694;28;20228;-74
2023/08/25 05:48:01;;;;;;;37.70;7.67;;;28.60;58.40;;;;;;5046330;28;20200;-74
2023/08/25 05:50:27;;;;;;;33.40;7.30;;;28.60;58.40;;;;;;5038074;28;20227;-75
2023/08/25 05:52:54;;;;;;;26.20;6.50;;;28.60;58.40;;;;;;5028857;28;20312;-75
2023/08/25 05:55:21;;;;;;;35.90;7.07;;;28.60;58.40;;;;;;5041764;28;20201;-75
2023/08/25 05:57:48;;;;;;;41.20;8.20;;;28.60;58.40;;;;;;5048080;28;20290;-75
2023/08/25 06:00:17;;;;;;;32.97;7.57;;;28.60;58.50;;;;;;5038899;28;20233;-76
2023/08/25 06:02:45;;;;;;;29.47;6.63;;;28.60;58.40;;;;;;5028209;28;20212;-75
2023/08/25 06:05:12;;;;;;;29.90;6.87;;;28.60;58.40;;;;;;5029593;28;20203;-74
2023/08/25 06:07:39;;;;;;;37.03;7.03;;;28.60;58.40;;;;;;5043954;28;20227;-75
2023/08/25 06:10:08;;;;;;;27.07;6.80;;;28.60;58.40;;;;;;5028362;28;20315;-76
2023/08/25 06:12:34;;;;;;;26.80;6.47;;;28.60;58.50;;;;;;5028573;28;20393;-77
2023/08/25 06:15:01;;;;;;;32.27;6.87;;;28.60;58.50;;;;;;5028576;28;20204;-75
2023/08/25 06:17:28;;;;;;;30.57;6.50;;;28.60;58.50;;;;;;5028541;28;20291;-75
2023/08/25 06:19:57;;;;;;;28.23;6.80;;;28.60;58.50;;;;;;5028186;28;20316;-75
2023/08/25 06:22:23;;;;;;;36.37;7.40;;;28.60;58.50;;;;;;5036689;28;20637;-74
2023/08/25 06:26:56;;;;;;;25.27;7.30;;;28.60;58.00;;;;;;5113879;27;20651;-69
2023/08/25 06:29:23;;;;;;;34.33;7.73;;;28.60;58.50;;;;;;5104207;28;20292;-78
2023/08/25 06:31:50;;;;;;;39.30;7.93;;;28.60;58.50;;;;;;5098047;28;20276;-75
2023/08/25 06:34:17;;;;;;;29.93;7.47;;;28.60;58.50;;;;;;5104069;28;20277;-75
2023/08/25 06:36:44;;;;;;;29.27;6.90;;;28.60;58.60;;;;;;5104197;28;20302;-75
2023/08/25 06:39:11;;;;;;;30.90;7.53;;;28.50;59.10;;;;;;5105387;28;20222;-76
2023/08/25 06:41:38;;;;;;;37.37;8.20;;;28.60;59.20;;;;;;5101538;28;20224;-73
2023/08/25 06:44:06;;;;;;;37.97;7.80;;;28.60;58.60;;;;;;5102406;28;20997;-76
2023/08/25 06:46:34;;;;;;;34.37;7.80;;;28.60;58.60;;;;;;5094892;28;20221;-75
2023/08/25 06:49:01;;;;;;;33.93;7.43;;;28.60;58.60;;;;;;5104255;28;20522;-74
2023/08/25 06:51:28;;;;;;;36.20;7.50;;;28.60;58.60;;;;;;5104733;28;20206;-75
2023/08/25 06:53:56;;;;;;;29.60;7.23;;;28.60;58.60;;;;;;5104703;28;20289;-74
2023/08/25 06:56:23;;;;;;;34.90;8.20;;;28.60;58.60;;;;;;5087424;28;20243;-75
2023/08/25 06:58:50;;;;;;;46.23;8.53;;;28.60;58.50;;;;;;5100017;28;20293;-74
2023/08/25 07:01:19;;;;;;;26.67;7.13;;;28.60;58.50;;;;;;5094449;28;20209;-74
2023/08/25 07:03:46;;;;;;;32.83;7.47;;;28.60;58.60;;;;;;5090808;28;20202;-74
2023/08/25 07:06:13;;;;;;;26.33;6.60;;;28.60;58.60;;;;;;5084559;28;20320;-78
2023/08/25 07:08:40;;;;;;;30.67;7.30;;;28.60;58.60;;;;;;5084475;28;20290;-74
2023/08/25 07:11:07;;;;;;;38.17;7.40;;;28.60;58.50;;;;;;5101547;28;20281;-74
2023/08/25 07:13:34;;;;;;;46.40;8.40;;;28.60;58.60;;;;;;5103835;28;20251;-76
2023/08/25 07:16:03;;;;;;;28.80;7.10;;;28.60;58.60;;;;;;5103622;28;20256;-76
2023/08/25 07:18:31;;;;;;;30.30;7.00;;;28.70;58.60;;;;;;5084405;28;20187;-73
2023/08/25 07:21:03;;;;;;;30.47;7.00;;;28.60;58.60;;;;;;5098653;28;20318;-74
2023/08/25 07:23:30;;;;;;;58.57;9.67;;;28.70;58.70;;;;;;5102987;28;20238;-74
2023/08/25 07:25:57;;;;;;;27.90;6.97;;;28.70;58.60;;;;;;5102627;28;20230;-74
2023/08/25 07:28:24;;;;;;;35.63;7.80;;;28.70;58.60;;;;;;5102052;28;20212;-74
2023/08/25 07:30:52;;;;;;;29.33;7.10;;;28.70;58.70;;;;;;5102712;28;20217;-74
2023/08/25 07:33:19;;;;;;;39.30;7.97;;;28.70;58.60;;;;;;5103551;28;20209;-75
2023/08/25 07:35:47;;;;;;;31.53;7.27;;;28.60;58.60;;;;;;5104401;28;20289;-75
2023/08/25 07:38:14;;;;;;;28.40;6.67;;;28.70;58.70;;;;;;5090457;28;20690;-74
2023/08/25 07:40:41;;;;;;;32.37;7.20;;;28.70;58.60;;;;;;5088468;28;20582;-74
2023/08/25 07:43:08;;;;;;;29.83;6.90;;;28.70;59.30;;;;;;5089649;28;20293;-75
2023/08/25 07:45:36;;;;;;;34.07;7.30;;;28.60;58.60;;;;;;5085372;28;20309;-74
2023/08/25 07:48:04;;;;;;;32.33;7.17;;;28.70;58.70;;;;;;5089997;28;20282;-74
2023/08/25 07:50:32;;;;;;;40.53;7.80;;;28.70;58.60;;;;;;5089629;28;20199;-74
2023/08/25 07:53:01;;;;;;;35.17;7.60;;;28.70;58.70;;;;;;5090019;28;20203;-74
2023/08/25 07:55:28;;;;;;;31.50;7.67;;;28.70;58.60;;;;;;5090018;28;20299;-73
2023/08/25 07:57:55;;;;;;;25.70;6.87;;;28.70;58.60;;;;;;5090050;28;20289;-74
2023/08/25 08:00:22;;;;;;;32.53;7.70;;;28.70;58.60;;;;;;5090333;28;20815;-75
2023/08/25 08:02:50;;;;;;;31.27;7.07;;;28.70;58.60;;;;;;5090310;28;20647;-74
2023/08/25 08:05:18;;;;;;;30.77;7.10;;;28.70;58.60;;;;;;5090266;28;20698;-74
2023/08/25 08:07:45;;;;;;;28.23;6.23;;;28.70;58.60;;;;;;5089241;28;20282;-76
2023/08/25 08:10:13;;;;;;;28.93;6.70;;;28.70;58.60;;;;;;5084218;28;20210;-75
2023/08/25 08:12:42;;;;;;;37.13;7.43;;;28.70;58.60;;;;;;5089890;28;20612;-74
2023/08/25 08:15:10;;;;;;;34.07;7.37;;;28.70;58.60;;;;;;5086943;28;20838;-76
2023/08/25 08:17:37;;;;;;;30.10;7.20;;;28.70;58.60;;;;;;5090328;28;20270;-75
2023/08/25 08:20:05;;;;;;;31.67;6.90;;;28.70;58.60;;;;;;5089950;28;20734;-77
2023/08/25 08:22:32;;;;;;;30.13;6.73;;;28.70;58.70;;;;;;5090419;28;20219;-75
2023/08/25 08:24:59;;;;;;;35.77;7.13;;;28.70;58.70;;;;;;5089500;28;20210;-75
2023/08/25 08:27:28;;;;;;;26.97;6.43;;;28.70;58.60;;;;;;5090021;28;20202;-73
2023/08/25 08:29:54;;;;;;;30.33;7.00;;;28.70;58.70;;;;;;5088960;28;20264;-74
2023/08/25 08:32:22;;;;;;;41.20;8.03;;;28.70;58.70;;;;;;5087007;28;20202;-74
2023/08/25 08:34:50;;;;;;;33.90;6.93;;;28.70;58.70;;;;;;5088967;28;20235;-74
2023/08/25 08:37:17;;;;;;;27.30;6.17;;;28.70;58.70;;;;;;5089114;28;20199;-74
2023/08/25 08:39:45;;;;;;;32.30;6.87;;;28.70;58.60;;;;;;5088277;28;20986;-74
2023/08/25 08:42:15;;;;;;;30.07;7.20;;;28.70;58.60;;;;;;5088246;28;20218;-74
2023/08/25 08:44:47;;;;;;;42.30;7.97;;;28.70;58.70;;;;;;5083178;28;20203;-74
2023/08/25 08:47:15;;;;;;;28.77;6.63;;;28.70;58.60;;;;;;5088599;28;20792;-75
2023/08/25 08:49:44;;;;;;;27.17;7.00;;;28.70;58.70;;;;;;5082824;28;20234;-74
2023/08/25 08:52:11;;;;;;;32.47;7.23;;;28.70;58.60;;;;;;5089467;28;20293;-73
2023/08/25 08:54:39;;;;;;;30.63;7.33;;;28.70;58.60;;;;;;5089086;28;20213;-74
2023/08/25 08:57:08;;;;;;;30.77;6.80;;;28.70;58.60;;;;;;5088527;28;20209;-74
2023/08/25 08:59:35;;;;;;;27.53;6.93;;;28.70;58.70;;;;;;5088873;28;20202;-74
2023/08/25 09:02:05;;;;;;;32.47;7.20;;;28.60;58.60;;;;;;5087875;28;20285;-74
2023/08/25 09:04:32;;;;;;;35.57;7.47;;;28.70;58.70;;;;;;5089573;28;20187;-74
2023/08/25 09:07:01;;;;;;;65.77;10.30;;;28.70;58.60;;;;;;5077802;28;20227;-76
2023/08/25 09:09:28;;;;;;;55.73;9.20;;;28.60;58.60;;;;;;5083907;28;20618;-75
2023/08/25 09:11:55;;;;;;;33.60;7.40;;;28.70;58.70;;;;;;5081238;28;20290;-69
2023/08/25 09:14:26;;;;;;;24.80;7.00;;;28.60;58.60;;;;;;5085468;28;20294;-79
2023/08/25 09:16:56;;;;;;;44.87;9.53;;;28.60;58.70;;;;;;5087891;28;20195;-76
2023/08/25 09:19:24;;;;;;;31.03;8.50;;;28.60;58.70;;;;;;5087049;28;20207;-74
2023/08/25 09:21:51;;;;;;;41.20;9.33;;;28.60;58.70;;;;;;5087026;28;20647;-75
2023/08/25 09:24:19;;;;;;;32.73;8.40;;;28.60;58.70;;;;;;5074643;28;20206;-78
2023/08/25 09:26:47;;;;;;;28.90;7.83;;;28.60;58.80;;;;;;5084644;28;20317;-80
2023/08/25 09:29:15;;;;;;;35.17;8.33;;;28.60;58.80;;;;;;5085047;28;20195;-86
2023/08/25 09:31:43;;;;;;;32.03;7.87;;;28.60;58.80;;;;;;5088522;28;20314;-78
2023/08/25 09:34:13;;;;;;;34.23;8.17;;;28.60;58.80;;;;;;5088661;28;20209;-75
2023/08/25 09:36:53;;;;;;;28.60;7.33;;;28.70;58.90;;;;;;5087717;28;20723;-73
2023/08/25 09:39:20;;;;;;;30.37;7.27;;;28.70;58.90;;;;;;5073999;28;20882;-78
2023/08/25 09:41:48;;;;;;;35.30;7.87;;;28.70;58.90;;;;;;5086069;28;20955;-77
2023/08/25 09:44:16;;;;;;;33.33;8.47;;;28.70;58.90;;;;;;5087771;28;20202;-78
2023/08/25 09:46:44;;;;;;;30.40;7.50;;;28.70;58.90;;;;;;5086993;28;20261;-78
2023/08/25 09:49:12;;;;;;;41.37;8.37;;;28.70;58.90;;;;;;5086477;28;20195;-79
2023/08/25 09:51:41;;;;;;;27.40;7.37;;;28.70;58.90;;;;;;5088028;28;20294;-78
2023/08/25 09:54:12;;;;;;;39.53;7.57;;;28.70;58.90;;;;;;5088028;28;20207;-77
2023/08/25 09:56:39;;;;;;;28.00;6.90;;;28.70;58.90;;;;;;5072585;28;20659;-78
2023/08/25 09:59:07;;;;;;;30.17;6.67;;;28.80;59.00;;;;;;5068064;28;20298;-79
2023/08/25 10:01:36;;;;;;;38.47;7.97;;;28.80;58.90;;;;;;5070047;28;20239;-77
2023/08/25 10:04:04;;;;;;;38.57;7.90;;;28.80;59.50;;;;;;5087760;28;20868;-78
2023/08/25 10:06:33;;;;;;;38.07;7.80;;;28.80;58.90;;;;;;5087714;28;20262;-78
2023/08/25 10:09:00;;;;;;;34.47;7.30;;;28.80;58.90;;;;;;5087947;28;20187;-77
2023/08/25 10:11:30;;;;;;;30.13;7.20;;;28.80;58.90;;;;;;5087662;28;20268;-78
2023/08/25 10:14:00;;;;;;;20.63;6.03;;;28.90;58.90;;;;;;5067868;28;20203;-77
2023/08/25 10:16:29;;;;;;;35.83;7.30;;;28.80;58.80;;;;;;5067465;28;20192;-78
2023/08/25 10:18:57;;;;;;;30.43;6.77;;;28.80;58.80;;;;;;5086944;28;20205;-77
2023/08/25 10:21:26;;;;;;;32.43;7.27;;;28.90;58.90;;;;;;5091069;28;20205;-78
2023/08/25 10:23:54;;;;;;;33.47;7.27;;;28.90;58.90;;;;;;5085822;28;20205;-78
2023/08/25 10:26:22;;;;;;;31.73;6.77;;;28.90;58.90;;;;;;5087071;28;20720;-78
2023/08/25 10:28:51;;;;;;;34.57;8.27;;;29.00;58.90;;;;;;5086821;28;20953;-78
2023/08/25 10:31:19;;;;;;;31.97;7.40;;;28.90;58.90;;;;;;5086803;28;20195;-77
2023/08/25 10:33:49;;;;;;;31.97;7.17;;;29.00;59.00;;;;;;5084968;28;20199;-77
2023/08/25 10:36:18;;;;;;;36.83;7.97;;;29.00;59.00;;;;;;5086393;28;20217;-77
2023/08/25 10:39:08;;;;;;;35.20;7.97;;;29.10;59.10;;;;;;5079319;28;20223;-78
2023/08/25 10:41:42;;;;;;;35.50;7.70;;;29.10;59.20;;;;;;5067696;28;20298;-77
2023/08/25 10:44:20;;;;;;;50.67;8.83;;;29.10;59.10;;;;;;5068533;28;20372;-78
2023/08/25 10:46:49;;;;;;;34.97;7.50;;;29.20;59.10;;;;;;5072810;28;20222;-77
2023/08/25 10:49:16;;;;;;;31.83;7.67;;;29.20;59.00;;;;;;5086623;28;20203;-77
2023/08/25 10:51:43;;;;;;;34.00;7.17;;;29.20;59.60;;;;;;5086454;28;20826;-77
2023/08/25 10:54:18;;;;;;;47.43;8.50;;;29.30;59.60;;;;;;5086607;28;20263;-78
2023/08/25 10:56:45;;;;;;;34.60;7.50;;;29.30;59.00;;;;;;5086913;28;20199;-78
2023/08/25 10:59:14;;;;;;;38.67;7.57;;;29.30;58.90;;;;;;5086707;28;20244;-77
2023/08/25 11:01:56;;;;;;;34.27;7.13;;;29.40;58.90;;;;;;5086421;28;20655;-77
2023/08/25 11:04:24;;;;;;;44.50;8.30;;;29.40;58.80;;;;;;5083671;28;20197;-77
2023/08/25 11:06:52;;;;;;;32.97;7.47;;;29.50;59.40;;;;;;5086337;28;20742;-78
2023/08/25 11:09:35;;;;;;;32.67;7.77;;;29.50;58.80;;;;;;5085804;28;20202;-78
2023/08/25 11:12:06;;;;;;;32.97;7.00;;;29.50;58.90;;;;;;5079163;28;20207;-78
2023/08/25 11:14:36;;;;;;;36.67;7.53;;;29.50;58.90;;;;;;5089026;28;20308;-78
2023/08/25 11:17:05;;;;;;;34.63;7.37;;;29.50;59.00;;;;;;5091398;28;20238;-77
2023/08/25 11:19:33;;;;;;;34.57;7.43;;;29.50;59.10;;;;;;5089887;28;20199;-78
2023/08/25 11:22:01;;;;;;;67.43;10.63;;;29.60;59.20;;;;;;5088379;28;20207;-76
2023/08/25 11:24:29;;;;;;;38.53;8.30;;;29.60;59.20;;;;;;5086595;28;20609;-78
2023/08/25 11:26:57;;;;;;;28.27;6.97;;;29.70;59.20;;;;;;5090693;28;20223;-77
2023/08/25 11:29:24;;;;;;;29.63;7.57;;;29.70;59.10;;;;;;5089309;28;20213;-77
2023/08/25 11:31:53;;;;;;;32.37;7.43;;;29.80;59.00;;;;;;5089545;28;20203;-77
2023/08/25 11:34:21;;;;;;;49.87;8.20;;;29.80;58.90;;;;;;5088731;28;20679;-77
2023/08/25 11:36:48;;;;;;;21.20;6.23;;;29.90;58.80;;;;;;5090641;28;20218;-79
2023/08/25 11:39:19;;;;;;;29.73;6.50;;;29.90;58.70;;;;;;5089458;28;20218;-77
2023/08/25 11:41:46;;;;;;;32.30;7.30;;;29.90;58.60;;;;;;5089097;28;20537;-77
2023/08/25 11:44:14;;;;;;;30.73;7.10;;;29.90;58.60;;;;;;5089829;28;20302;-77
2023/08/25 11:46:42;;;;;;;36.23;7.63;;;30.00;58.60;;;;;;5089524;28;20230;-76
2023/08/25 11:49:10;;;;;;;32.70;7.30;;;30.00;58.50;;;;;;5088976;28;20293;-77
2023/08/25 11:51:38;;;;;;;28.00;6.83;;;30.00;58.50;;;;;;5090157;28;20224;-78
2023/08/25 11:54:05;;;;;;;30.20;6.87;;;30.00;58.50;;;;;;5090204;28;20643;-77
2023/08/25 11:56:33;;;;;;;31.90;7.47;;;30.00;58.50;;;;;;5090740;28;20203;-78
2023/08/25 11:59:00;;;;;;;31.23;7.03;;;30.00;58.50;;;;;;5090785;28;20234;-77
2023/08/25 12:01:32;;;;;;;31.10;6.67;;;30.00;58.50;;;;;;5088376;28;20207;-77
2023/08/25 12:04:00;;;;;;;33.30;7.13;;;30.00;58.40;;;;;;5088889;28;20191;-78
2023/08/25 12:06:28;;;;;;;30.30;6.97;;;30.00;58.40;;;;;;5087906;28;20194;-78
2023/08/25 12:08:55;;;;;;;32.20;7.60;;;30.00;59.00;;;;;;5089383;28;20198;-77
2023/08/25 12:11:22;;;;;;;26.93;6.83;;;30.00;58.40;;;;;;5090080;28;20385;-77
2023/08/25 12:13:50;;;;;;;45.33;8.57;;;30.00;58.30;;;;;;5088999;28;20286;-77
2023/08/25 12:16:19;;;;;;;31.93;7.87;;;30.00;58.40;;;;;;5090007;28;20230;-77
2023/08/25 12:18:51;;;;;;;30.37;7.20;;;30.00;58.40;;;;;;5086549;28;20228;-76
2023/08/25 12:21:19;;;;;;;32.37;7.17;;;30.00;58.50;;;;;;5071616;28;20737;-77
2023/08/25 12:23:47;;;;;;;45.60;8.03;;;30.00;58.40;;;;;;5087954;28;20214;-76
2023/08/25 12:26:14;;;;;;;30.63;7.17;;;30.00;58.30;;;;;;5089885;28;20314;-77
2023/08/25 12:28:43;;;;;;;29.90;6.90;;;30.00;58.30;;;;;;5089661;28;20218;-75
2023/08/25 12:31:10;;;;;;;29.67;6.90;;;30.00;58.30;;;;;;5089074;28;20307;-77
2023/08/25 12:33:37;;;;;;;31.77;7.27;;;30.00;58.30;;;;;;5088238;28;20199;-78
2023/08/25 12:36:05;;;;;;;30.80;7.13;;;30.00;58.30;;;;;;5088312;28;20207;-77
2023/08/25 12:38:33;;;;;;;39.03;8.10;;;30.00;58.30;;;;;;5069584;28;20286;-77
2023/08/25 12:41:01;;;;;;;34.43;7.00;;;30.00;58.30;;;;;;5069845;28;20222;-78